Time;durP1;ratioP1;P1;durP2;ratioP2;P2;SDS_P1;SDS_P2;PMS_P1;PMS_P2;Temp;Humidity;BMP_temperature;BMP_pressure;BME280_temperature;BME280_humidity;BME280_pressure;Samples;Min_cycle;Max_cycle;Signal;HPM_P1;HPM_P2
2022/03/22 00:00:23;;;;;;;53.53;26.33;;;;;;;;;;6237335;28;20107;-65
2022/03/22 00:03:25;;;;;;;64.00;29.77;;;;;;;;;;6223292;28;20032;-65
2022/03/22 00:06:25;;;;;;;69.43;35.17;;;;;;;;;;6217260;28;20022;-65
2022/03/22 00:09:26;;;;;;;75.60;33.60;;;;;;;;;;6219603;28;20088;-65
2022/03/22 00:12:26;;;;;;;71.72;32.00;;;;;;;;;;6236997;28;20279;-65
2022/03/22 00:15:27;;;;;;;69.90;30.38;;;;;;;;;;6241950;28;20049;-65
2022/03/22 00:18:27;;;;;;;78.47;34.78;;;;;;;;;;6241977;28;20020;-65
2022/03/22 00:21:28;;;;;;;68.47;30.15;;;;;;;;;;6234445;28;20010;-65
2022/03/22 00:24:28;;;;;;;74.40;32.90;;;;;;;;;;6239276;28;20014;-65
2022/03/22 00:27:50;;;;;;;75.22;32.75;;;;;;;;;;6241897;28;20408;-65
2022/03/22 00:30:50;;;;;;;85.13;38.78;;;;;;;;;;6235922;28;20033;-65
2022/03/22 00:33:50;;;;;;;77.43;34.83;;;;;;;;;;6242404;28;20021;-65
2022/03/22 00:36:51;;;;;;;70.38;31.50;;;;;;;;;;6241829;28;20763;-65
2022/03/22 00:39:52;;;;;;;75.53;28.38;;;;;;;;;;6238643;28;20063;-66
2022/03/22 00:42:53;;;;;;;72.18;30.33;;;;;;;;;;6238974;28;20506;-66
2022/03/22 00:45:55;;;;;;;51.67;23.45;;;;;;;;;;6241636;28;20014;-66
2022/03/22 00:48:55;;;;;;;62.25;26.80;;;;;;;;;;6245935;28;20029;-66
2022/03/22 00:51:55;;;;;;;71.00;30.23;;;;;;;;;;6250162;28;20104;-66
2022/03/22 00:54:55;;;;;;;67.28;28.25;;;;;;;;;;6249574;28;20046;-66
2022/03/22 00:57:56;;;;;;;74.00;31.17;;;;;;;;;;6248402;28;20496;-66
2022/03/22 01:00:56;;;;;;;74.78;32.47;;;;;;;;;;6247275;28;20036;-66
2022/03/22 01:03:56;;;;;;;68.78;30.15;;;;;;;;;;6245423;28;20453;-66
2022/03/22 01:06:57;;;;;;;65.70;29.20;;;;;;;;;;6249907;28;20025;-66
2022/03/22 01:09:57;;;;;;;64.70;27.27;;;;;;;;;;6248033;28;20101;-66
2022/03/22 01:12:57;;;;;;;57.35;24.65;;;;;;;;;;6250159;28;20525;-66
2022/03/22 01:15:58;;;;;;;61.03;23.67;;;;;;;;;;6242207;28;20024;-67
2022/03/22 01:18:58;;;;;;;56.42;23.00;;;;;;;;;;6250298;28;20405;-67
2022/03/22 01:21:59;;;;;;;46.58;23.42;;;;;;;;;;6251622;28;20032;-67
2022/03/22 01:24:59;;;;;;;55.73;24.80;;;;;;;;;;6237726;28;20504;-67
2022/03/22 01:28:00;;;;;;;50.78;21.70;;;;;;;;;;6239426;28;20252;-67
2022/03/22 01:31:01;;;;;;;57.92;26.55;;;;;;;;;;6249103;28;20331;-66
2022/03/22 01:34:01;;;;;;;50.92;22.50;;;;;;;;;;6251051;28;20033;-66
2022/03/22 01:37:02;;;;;;;53.83;20.85;;;;;;;;;;6250837;28;20403;-66
2022/03/22 01:40:03;;;;;;;46.25;21.08;;;;;;;;;;6250341;28;20120;-66
2022/03/22 01:43:04;;;;;;;56.88;21.67;;;;;;;;;;6221304;28;20028;-66
2022/03/22 01:46:04;;;;;;;49.65;21.92;;;;;;;;;;6250616;28;20083;-66
2022/03/22 01:49:04;;;;;;;54.28;22.55;;;;;;;;;;6250286;28;20022;-65
2022/03/22 01:52:05;;;;;;;52.10;23.27;;;;;;;;;;6251406;28;20519;-65
2022/03/22 01:55:07;;;;;;;52.15;23.20;;;;;;;;;;6235396;28;20061;-65
2022/03/22 01:58:07;;;;;;;52.25;23.05;;;;;;;;;;6267547;28;20025;-65
2022/03/22 02:07:47;;;;;;;45.72;20.60;;;;;;;;;;6222040;28;20026;-65
2022/03/22 02:10:47;;;;;;;51.92;20.90;;;;;;;;;;6236083;28;20056;-65
2022/03/22 02:13:48;;;;;;;48.65;22.58;;;;;;;;;;6237896;28;20029;-63
2022/03/22 02:16:48;;;;;;;47.20;21.00;;;;;;;;;;6246186;28;20025;-64
2022/03/22 02:19:48;;;;;;;53.72;23.38;;;;;;;;;;6246182;28;20053;-64
2022/03/22 02:22:54;;;;;;;54.15;20.40;;;;;;;;;;6245578;28;20074;-64
2022/03/22 02:25:55;;;;;;;53.03;23.02;;;;;;;;;;6245990;28;20030;-64
2022/03/22 02:28:55;;;;;;;52.90;22.92;;;;;;;;;;6245795;28;20053;-64
2022/03/22 02:31:55;;;;;;;51.25;21.23;;;;;;;;;;6242348;28;20017;-65
2022/03/22 02:34:55;;;;;;;48.25;22.67;;;;;;;;;;6245965;28;20021;-65
2022/03/22 02:37:56;;;;;;;53.40;20.15;;;;;;;;;;6245882;28;20104;-65
2022/03/22 02:40:57;;;;;;;50.65;23.42;;;;;;;;;;6244073;28;20022;-64
2022/03/22 02:43:57;;;;;;;48.72;21.85;;;;;;;;;;6243469;28;20414;-64
2022/03/22 02:46:58;;;;;;;52.13;20.75;;;;;;;;;;6243094;28;20088;-64
2022/03/22 02:49:58;;;;;;;47.83;22.50;;;;;;;;;;6245292;28;20233;-64
2022/03/22 02:53:00;;;;;;;57.55;22.95;;;;;;;;;;6244924;28;20049;-64
2022/03/22 02:56:01;;;;;;;;;;;;;;;;;;6243079;28;20035;-64
2022/03/22 02:59:02;;;;;;;57.47;25.40;;;;;;;;;;6237803;28;20391;-64
2022/03/22 03:02:04;;;;;;;51.55;21.90;;;;;;;;;;6233760;28;20065;-64
2022/03/22 03:05:05;;;;;;;53.30;21.77;;;;;;;;;;6240179;28;20434;-64
2022/03/22 03:08:06;;;;;;;42.70;20.50;;;;;;;;;;6241720;28;20026;-64
2022/03/22 03:11:07;;;;;;;52.30;21.03;;;;;;;;;;6215083;28;20048;-64
2022/03/22 03:17:26;;;;;;;45.42;20.67;;;;;;;;;;6220800;28;20029;-64
2022/03/22 03:20:26;;;;;;;46.70;18.90;;;;;;;;;;6220012;28;20489;-64
2022/03/22 03:23:26;;;;;;;51.67;21.40;;;;;;;;;;6220061;28;20032;-64
2022/03/22 03:26:27;;;;;;;37.22;20.25;;;;;;;;;;6237579;28;20116;-64
2022/03/22 03:29:27;;;;;;;47.10;20.63;;;;;;;;;;6242109;28;20089;-64
2022/03/22 03:32:27;;;;;;;51.30;22.42;;;;;;;;;;6243662;28;20070;-65
2022/03/22 03:35:28;;;;;;;40.92;17.17;;;;;;;;;;6239277;28;20129;-64
2022/03/22 03:38:28;;;;;;;49.03;22.88;;;;;;;;;;6223568;28;20033;-64
2022/03/22 03:48:06;;;;;;;231.70;83.72;;;;;;;;;;6217221;28;20030;-64
2022/03/22 03:51:06;;;;;;;96.60;39.63;;;;;;;;;;6199254;28;20535;-64
2022/03/22 03:54:07;;;;;;;120.90;51.78;;;;;;;;;;6219098;28;20053;-64
2022/03/22 03:57:07;;;;;;;94.97;40.88;;;;;;;;;;6221032;28;20543;-64
2022/03/22 04:00:08;;;;;;;115.60;47.75;;;;;;;;;;6218611;28;20021;-64
2022/03/22 04:03:08;;;;;;;111.03;42.83;;;;;;;;;;6219205;28;20671;-64
2022/03/22 04:06:08;;;;;;;71.63;33.05;;;;;;;;;;6217328;28;20017;-65
2022/03/22 04:09:09;;;;;;;71.55;30.55;;;;;;;;;;6218465;28;20500;-65
2022/03/22 04:12:09;;;;;;;78.35;32.42;;;;;;;;;;6218203;28;20026;-65
2022/03/22 04:15:09;;;;;;;54.50;24.70;;;;;;;;;;6219172;28;20021;-64
2022/03/22 04:18:10;;;;;;;64.28;28.17;;;;;;;;;;6216260;28;20057;-65
2022/03/22 04:21:10;;;;;;;62.72;22.80;;;;;;;;;;6219308;28;20452;-65
2022/03/22 04:24:11;;;;;;;73.15;31.23;;;;;;;;;;6227186;28;20029;-65
2022/03/22 04:33:51;;;;;;;61.72;26.98;;;;;;;;;;6235086;28;20576;-65
2022/03/22 04:36:55;;;;;;;;;;;;;;;;;;6242801;28;20414;-65
2022/03/22 04:39:55;;;;;;;62.85;26.77;;;;;;;;;;6241642;28;19909;-65
2022/03/22 04:42:55;;;;;;;68.40;27.83;;;;;;;;;;6236954;28;20035;-65
2022/03/22 04:45:56;;;;;;;51.40;20.98;;;;;;;;;;6243148;28;20029;-65
2022/03/22 04:48:56;;;;;;;51.40;22.27;;;;;;;;;;6242515;28;20107;-65
2022/03/22 04:58:34;;;;;;;63.95;28.35;;;;;;;;;;6267073;28;20033;-65
2022/03/22 05:01:34;;;;;;;81.45;37.20;;;;;;;;;;6253060;28;20441;-65
2022/03/22 05:04:35;;;;;;;136.00;54.63;;;;;;;;;;6242310;28;20053;-65
2022/03/22 05:07:35;;;;;;;158.63;66.32;;;;;;;;;;6242129;28;20029;-65
2022/03/22 05:10:35;;;;;;;135.60;55.33;;;;;;;;;;6233128;28;20052;-65
2022/03/22 05:13:36;;;;;;;106.90;45.95;;;;;;;;;;6228258;28;20103;-65
2022/03/22 05:16:36;;;;;;;80.22;35.42;;;;;;;;;;6219125;28;20041;-65
2022/03/22 05:19:39;;;;;;;82.80;37.22;;;;;;;;;;6237680;28;20390;-65
2022/03/22 05:22:40;;;;;;;87.43;37.45;;;;;;;;;;6234751;28;20511;-65
2022/03/22 05:25:40;;;;;;;88.72;36.22;;;;;;;;;;6224377;28;20029;-65
2022/03/22 05:28:41;;;;;;;70.75;31.10;;;;;;;;;;6241557;28;20036;-65
2022/03/22 05:31:41;;;;;;;114.53;50.20;;;;;;;;;;6219275;28;20029;-65
2022/03/22 05:34:41;;;;;;;90.22;36.03;;;;;;;;;;6222557;28;20041;-65
2022/03/22 05:37:42;;;;;;;113.82;51.28;;;;;;;;;;6238616;28;21199;-65
2022/03/22 05:40:42;;;;;;;141.48;62.58;;;;;;;;;;6238894;28;20030;-65
2022/03/22 05:43:43;;;;;;;122.80;54.28;;;;;;;;;;6238448;28;20544;-65
2022/03/22 05:46:43;;;;;;;124.53;52.78;;;;;;;;;;6235653;28;20080;-65
2022/03/22 05:49:43;;;;;;;109.93;55.67;;;;;;;;;;6240265;28;20402;-65
2022/03/22 05:52:44;;;;;;;119.63;57.20;;;;;;;;;;6216464;28;20560;-65
2022/03/22 05:55:44;;;;;;;132.30;61.40;;;;;;;;;;6240427;28;20025;-65
2022/03/22 05:58:45;;;;;;;212.40;110.60;;;;;;;;;;6241061;28;20144;-65
2022/03/22 06:01:45;;;;;;;212.43;106.63;;;;;;;;;;6246057;28;20025;-65
2022/03/22 06:04:48;;;;;;;366.50;181.70;;;;;;;;;;6237906;28;20026;-65
2022/03/22 06:07:48;;;;;;;296.08;140.48;;;;;;;;;;6243221;28;20029;-65
2022/03/22 06:10:49;;;;;;;161.25;77.80;;;;;;;;;;6235709;28;20025;-66
2022/03/22 06:13:49;;;;;;;120.72;57.30;;;;;;;;;;6225873;28;20393;-66
2022/03/22 06:16:49;;;;;;;114.32;56.08;;;;;;;;;;6241753;28;20025;-66
2022/03/22 06:19:50;;;;;;;87.85;41.15;;;;;;;;;;6225373;28;20022;-66
2022/03/22 06:22:50;;;;;;;86.63;42.65;;;;;;;;;;6219763;28;20396;-66
2022/03/22 06:25:51;;;;;;;77.40;38.40;;;;;;;;;;6219426;28;20018;-66
2022/03/22 06:28:52;;;;;;;82.85;35.42;;;;;;;;;;6227718;28;20040;-66
2022/03/22 06:31:52;;;;;;;76.55;38.83;;;;;;;;;;6231233;28;20477;-66
2022/03/22 06:34:52;;;;;;;80.35;39.50;;;;;;;;;;6227913;28;20021;-66
2022/03/22 06:37:54;;;;;;;99.05;49.25;;;;;;;;;;6217152;28;20014;-66
2022/03/22 06:40:54;;;;;;;127.63;59.87;;;;;;;;;;6227134;28;20071;-66
2022/03/22 06:43:55;;;;;;;120.03;54.88;;;;;;;;;;6242261;28;20116;-66
2022/03/22 06:46:55;;;;;;;121.53;53.45;;;;;;;;;;6243694;28;20037;-66
2022/03/22 06:49:56;;;;;;;75.72;38.00;;;;;;;;;;6233282;28;20037;-66
2022/03/22 06:52:56;;;;;;;73.88;36.92;;;;;;;;;;6239852;28;20045;-66
2022/03/22 06:55:57;;;;;;;60.47;28.92;;;;;;;;;;6243875;28;20033;-66
2022/03/22 06:58:58;;;;;;;61.17;32.33;;;;;;;;;;6232916;28;20034;-66
2022/03/22 07:01:58;;;;;;;67.63;35.53;;;;;;;;;;6232515;28;20684;-67
2022/03/22 07:04:59;;;;;;;56.15;28.88;;;;;;;;;;6234857;28;20033;-66
2022/03/22 07:07:59;;;;;;;62.15;31.20;;;;;;;;;;6235094;28;20030;-66
2022/03/22 07:14:20;;;;;;;43.22;24.98;;;;;;;;;;6240959;28;20474;-66
2022/03/22 07:17:20;;;;;;;49.63;26.05;;;;;;;;;;6244166;28;20026;-66
2022/03/22 07:20:21;;;;;;;47.50;25.30;;;;;;;;;;6238342;28;20018;-67
2022/03/22 07:23:21;;;;;;;45.92;25.20;;;;;;;;;;6220490;28;20025;-67
2022/03/22 07:26:22;;;;;;;50.63;26.05;;;;;;;;;;6232527;28;20025;-67
2022/03/22 07:29:22;;;;;;;53.38;27.70;;;;;;;;;;6224709;28;20453;-67
2022/03/22 07:32:22;;;;;;;52.38;24.35;;;;;;;;;;6231852;28;20124;-67
2022/03/22 07:35:23;;;;;;;56.92;28.92;;;;;;;;;;6236072;28;20022;-67
2022/03/22 07:38:23;;;;;;;58.92;28.95;;;;;;;;;;6237507;28;20060;-67
2022/03/22 07:41:23;;;;;;;47.78;26.65;;;;;;;;;;6237059;28;20093;-67
2022/03/22 07:44:24;;;;;;;51.42;26.95;;;;;;;;;;6242110;28;20297;-67
2022/03/22 07:47:24;;;;;;;57.80;28.23;;;;;;;;;;6243778;28;20025;-67
2022/03/22 07:53:44;;;;;;;48.65;24.98;;;;;;;;;;6221554;28;20046;-67
2022/03/22 07:56:44;;;;;;;52.63;26.33;;;;;;;;;;6219008;28;20029;-67
2022/03/22 07:59:45;;;;;;;54.10;26.88;;;;;;;;;;6229388;28;20018;-67
2022/03/22 08:02:52;;;;;;;50.72;27.55;;;;;;;;;;6243363;28;20025;-67
2022/03/22 08:05:53;;;;;;;46.95;25.67;;;;;;;;;;6242887;28;20593;-67
2022/03/22 08:08:53;;;;;;;47.30;24.08;;;;;;;;;;6238875;28;20052;-67
2022/03/22 08:11:53;;;;;;;42.80;23.07;;;;;;;;;;6219922;28;20109;-67
2022/03/22 08:14:54;;;;;;;44.97;22.80;;;;;;;;;;6219264;28;20018;-67
2022/03/22 08:17:54;;;;;;;33.08;18.83;;;;;;;;;;6216868;28;20071;-67
2022/03/22 08:20:55;;;;;;;36.45;19.90;;;;;;;;;;6216415;28;20025;-67
2022/03/22 08:23:56;;;;;;;43.10;19.63;;;;;;;;;;6216873;28;20025;-67
2022/03/22 08:26:56;;;;;;;33.85;16.90;;;;;;;;;;6218383;28;20271;-67
2022/03/22 08:29:56;;;;;;;33.30;17.42;;;;;;;;;;6223338;28;20456;-67
2022/03/22 08:33:00;;;;;;;32.67;19.07;;;;;;;;;;6223298;28;20108;-67
2022/03/22 08:36:01;;;;;;;29.13;15.93;;;;;;;;;;6227603;28;20136;-67
2022/03/22 08:39:01;;;;;;;34.25;19.08;;;;;;;;;;6217419;28;20034;-67
2022/03/22 08:42:01;;;;;;;29.48;15.68;;;;;;;;;;6219913;28;20432;-67
2022/03/22 08:45:03;;;;;;;28.67;15.75;;;;;;;;;;6216735;28;20572;-67
2022/03/22 08:48:09;;;;;;;;;;;;;;;;;;6216997;28;20389;-67
2022/03/22 08:51:09;;;;;;;28.42;14.15;;;;;;;;;;6216081;28;19920;-67
2022/03/22 08:54:09;;;;;;;30.08;14.93;;;;;;;;;;6217682;28;20050;-67
2022/03/22 08:57:11;;;;;;;29.73;16.40;;;;;;;;;;6217313;28;20421;-67
2022/03/22 09:00:12;;;;;;;30.25;16.25;;;;;;;;;;6218902;28;20059;-67
2022/03/22 09:03:12;;;;;;;25.50;13.25;;;;;;;;;;6219842;28;20026;-67
2022/03/22 09:06:14;;;;;;;28.23;16.97;;;;;;;;;;6217323;28;20073;-67
2022/03/22 09:09:14;;;;;;;24.33;14.48;;;;;;;;;;6219150;28;20045;-67
2022/03/22 09:12:14;;;;;;;32.33;16.57;;;;;;;;;;6232403;28;20032;-67
2022/03/22 09:15:15;;;;;;;31.60;15.37;;;;;;;;;;6245577;28;20025;-67
2022/03/22 09:18:16;;;;;;;30.30;16.20;;;;;;;;;;6214599;28;20075;-67
2022/03/22 09:21:16;;;;;;;28.27;15.63;;;;;;;;;;6226376;28;20564;-67
2022/03/22 09:24:17;;;;;;;31.60;18.57;;;;;;;;;;6244604;28;20477;-67
2022/03/22 09:27:17;;;;;;;28.23;16.07;;;;;;;;;;6245970;28;20096;-67
2022/03/22 09:30:18;;;;;;;28.43;16.03;;;;;;;;;;6243712;28;20461;-67
2022/03/22 09:33:18;;;;;;;24.03;15.07;;;;;;;;;;6244239;28;20060;-67
2022/03/22 09:36:19;;;;;;;25.33;15.40;;;;;;;;;;6239831;28;20030;-67
2022/03/22 09:39:20;;;;;;;26.02;13.63;;;;;;;;;;6243908;28;20032;-67
2022/03/22 09:42:20;;;;;;;31.50;17.23;;;;;;;;;;6231921;28;20048;-67
2022/03/22 09:45:25;;;;;;;32.40;16.40;;;;;;;;;;6232811;28;20013;-67
2022/03/22 09:48:27;;;;;;;27.08;16.02;;;;;;;;;;6240144;28;20040;-67
2022/03/22 09:54:57;;;;;;;30.48;16.67;;;;;;;;;;6220181;28;19960;-66
2022/03/22 09:57:57;;;;;;;26.83;15.23;;;;;;;;;;6232274;28;20477;-66
2022/03/22 10:00:58;;;;;;;22.90;13.30;;;;;;;;;;6237584;28;20018;-67
2022/03/22 10:04:06;;;;;;;22.90;12.83;;;;;;;;;;6237281;28;20025;-67
2022/03/22 10:07:07;;;;;;;28.85;16.13;;;;;;;;;;6242136;28;20026;-67
2022/03/22 10:10:08;;;;;;;26.38;13.85;;;;;;;;;;6242760;28;20033;-66
2022/03/22 10:13:09;;;;;;;24.67;14.67;;;;;;;;;;6230968;28;20029;-66
2022/03/22 10:16:09;;;;;;;22.27;12.35;;;;;;;;;;6227663;28;20032;-66
2022/03/22 10:19:16;;;;;;;22.97;12.30;;;;;;;;;;6226180;28;20577;-66
2022/03/22 10:22:26;;;;;;;21.08;12.52;;;;;;;;;;6231877;28;20683;-66
2022/03/22 10:25:27;;;;;;;19.70;11.75;;;;;;;;;;6236248;28;20386;-66
2022/03/22 10:28:28;;;;;;;18.90;11.00;;;;;;;;;;6231843;28;20500;-66
2022/03/22 10:31:33;;;;;;;22.63;11.37;;;;;;;;;;6226940;28;20049;-66
2022/03/22 10:34:33;;;;;;;23.70;13.63;;;;;;;;;;6235052;28;20546;-66
2022/03/22 10:37:33;;;;;;;19.73;11.83;;;;;;;;;;6222430;28;20026;-66
2022/03/22 10:40:34;;;;;;;20.53;12.47;;;;;;;;;;6224835;28;20018;-66
2022/03/22 10:43:36;;;;;;;19.35;11.20;;;;;;;;;;6223651;28;20057;-66
2022/03/22 10:46:38;;;;;;;;;;;;;;;;;;6236161;28;20028;-66
2022/03/22 10:49:38;;;;;;;20.17;12.68;;;;;;;;;;6243777;28;19959;-67
2022/03/22 10:52:51;;;;;;;25.20;12.47;;;;;;;;;;6243498;28;20049;-66
2022/03/22 10:55:52;;;;;;;20.02;11.63;;;;;;;;;;6233015;28;20018;-66
2022/03/22 10:58:55;;;;;;;17.30;9.23;;;;;;;;;;6236582;28;20030;-66
2022/03/22 11:01:56;;;;;;;18.45;10.52;;;;;;;;;;6219421;28;20285;-66
2022/03/22 11:04:58;;;;;;;13.65;8.43;;;;;;;;;;6232099;28;20017;-66
2022/03/22 11:07:58;;;;;;;18.42;9.93;;;;;;;;;;6237006;28;20381;-67
2022/03/22 11:10:59;;;;;;;17.90;9.80;;;;;;;;;;6208624;28;20025;-66
2022/03/22 11:14:00;;;;;;;19.43;9.73;;;;;;;;;;6225328;28;20029;-66
2022/03/22 11:17:00;;;;;;;17.05;9.07;;;;;;;;;;6222312;28;20032;-67
2022/03/22 11:20:06;;;;;;;22.57;10.47;;;;;;;;;;6223017;28;20380;-66
2022/03/22 11:23:08;;;;;;;19.40;11.27;;;;;;;;;;6224146;28;20112;-66
2022/03/22 11:26:13;;;;;;;16.60;9.98;;;;;;;;;;6240857;28;20032;-66
2022/03/22 11:29:15;;;;;;;21.13;10.77;;;;;;;;;;6223616;28;20034;-66
2022/03/22 11:35:45;;;;;;;26.27;12.23;;;;;;;;;;6224577;28;20034;-67
2022/03/22 11:38:46;;;;;;;16.70;10.25;;;;;;;;;;6200162;28;20018;-67
2022/03/22 11:45:09;;;;;;;17.20;10.07;;;;;;;;;;6234562;28;20560;-67
2022/03/22 11:48:10;;;;;;;22.60;11.48;;;;;;;;;;6219918;28;20516;-66
2022/03/22 11:51:10;;;;;;;19.00;11.33;;;;;;;;;;6242351;28;20014;-66
2022/03/22 11:54:11;;;;;;;17.40;9.27;;;;;;;;;;6239376;28;20044;-67
2022/03/22 11:57:15;;;;;;;20.87;12.30;;;;;;;;;;6225030;28;20025;-67
2022/03/22 12:00:22;;;;;;;21.35;12.13;;;;;;;;;;6203442;28;20014;-67
2022/03/22 12:03:29;;;;;;;19.52;11.75;;;;;;;;;;6227617;28;20021;-67
2022/03/22 12:06:30;;;;;;;20.55;11.20;;;;;;;;;;6220222;28;20017;-67
2022/03/22 12:09:31;;;;;;;19.70;11.43;;;;;;;;;;6233521;28;20036;-67
2022/03/22 12:12:32;;;;;;;16.10;8.63;;;;;;;;;;6225569;28;20026;-67
2022/03/22 12:15:32;;;;;;;17.92;9.32;;;;;;;;;;6240224;28;20025;-67
2022/03/22 12:18:32;;;;;;;15.53;9.23;;;;;;;;;;6240727;28;20067;-67
2022/03/22 12:21:34;;;;;;;14.40;9.03;;;;;;;;;;6243047;28;20113;-67
2022/03/22 12:24:35;;;;;;;16.58;8.93;;;;;;;;;;6242909;28;20140;-67
2022/03/22 12:27:36;;;;;;;15.30;9.30;;;;;;;;;;6243043;28;20088;-67
2022/03/22 12:30:37;;;;;;;18.83;10.07;;;;;;;;;;6238718;28;20294;-67
2022/03/22 12:33:37;;;;;;;18.27;10.05;;;;;;;;;;6243208;28;20083;-67
2022/03/22 12:36:38;;;;;;;18.43;9.37;;;;;;;;;;6243367;28;20021;-67
2022/03/22 12:39:41;;;;;;;17.70;9.05;;;;;;;;;;6243219;28;20029;-66
2022/03/22 12:42:41;;;;;;;17.48;10.18;;;;;;;;;;6239178;28;20045;-67
2022/03/22 12:45:43;;;;;;;18.80;10.27;;;;;;;;;;6241804;28;20061;-67
2022/03/22 12:48:43;;;;;;;14.45;8.98;;;;;;;;;;6225192;28;20034;-67
2022/03/22 12:51:43;;;;;;;15.93;9.53;;;;;;;;;;6239402;28;20032;-67
2022/03/22 12:54:44;;;;;;;15.00;8.47;;;;;;;;;;6241494;28;20128;-67
2022/03/22 12:57:48;;;;;;;16.23;9.53;;;;;;;;;;6258700;28;20052;-66
2022/03/22 13:00:48;;;;;;;13.48;9.18;;;;;;;;;;6242439;28;20052;-66
2022/03/22 13:03:49;;;;;;;16.30;8.73;;;;;;;;;;6242701;28;20473;-66
2022/03/22 13:06:54;;;;;;;17.13;8.90;;;;;;;;;;6242836;28;20053;-67
2022/03/22 13:13:17;;;;;;;19.38;9.32;;;;;;;;;;6230007;28;20030;-67
2022/03/22 13:16:21;;;;;;;12.32;7.38;;;;;;;;;;6220765;28;20025;-67
2022/03/22 13:19:21;;;;;;;16.67;7.93;;;;;;;;;;6217013;28;20054;-67
2022/03/22 13:22:25;;;;;;;17.37;7.97;;;;;;;;;;6217840;28;20040;-67
2022/03/22 13:25:28;;;;;;;13.63;8.18;;;;;;;;;;6222713;28;20614;-67
2022/03/22 13:28:34;;;;;;;18.75;9.48;;;;;;;;;;6236623;28;20136;-67
2022/03/22 13:31:34;;;;;;;19.13;8.90;;;;;;;;;;6240542;28;20108;-67
2022/03/22 13:34:35;;;;;;;12.33;7.73;;;;;;;;;;6242051;28;20055;-67
2022/03/22 13:37:51;;;;;;;17.85;9.95;;;;;;;;;;6242230;28;20037;-67
2022/03/22 13:40:59;;;;;;;20.30;8.35;;;;;;;;;;6240885;28;20273;-68
2022/03/22 13:43:59;;;;;;;14.23;8.50;;;;;;;;;;6220098;28;20029;-68
2022/03/22 13:47:00;;;;;;;19.37;9.10;;;;;;;;;;6242147;28;20566;-68
2022/03/22 13:50:21;;;;;;;22.83;9.90;;;;;;;;;;6242643;28;20100;-68
2022/03/22 13:53:25;;;;;;;15.93;9.65;;;;;;;;;;6241418;28;20049;-68
2022/03/22 13:56:25;;;;;;;20.90;9.00;;;;;;;;;;6252232;28;20029;-68
2022/03/22 13:59:25;;;;;;;18.83;9.23;;;;;;;;;;6271501;28;20078;-68
2022/03/22 14:02:26;;;;;;;21.17;11.10;;;;;;;;;;6249785;28;20060;-68
2022/03/22 14:05:26;;;;;;;17.97;9.17;;;;;;;;;;6246429;28;20033;-68
2022/03/22 14:08:26;;;;;;;13.43;7.43;;;;;;;;;;6243828;28;20018;-68
2022/03/22 14:11:28;;;;;;;11.47;7.13;;;;;;;;;;6235454;28;20112;-68
2022/03/22 14:14:28;;;;;;;15.15;7.90;;;;;;;;;;6227796;28;20551;-68
2022/03/22 14:17:28;;;;;;;15.00;7.70;;;;;;;;;;6229959;28;20033;-68
2022/03/22 14:20:29;;;;;;;12.63;7.70;;;;;;;;;;6221107;28;20021;-68
2022/03/22 14:23:30;;;;;;;12.80;8.13;;;;;;;;;;6220038;28;20161;-68
2022/03/22 14:26:30;;;;;;;16.43;9.37;;;;;;;;;;6225674;28;20080;-68
2022/03/22 14:29:30;;;;;;;16.37;9.23;;;;;;;;;;6233729;28;20314;-68
2022/03/22 14:32:30;;;;;;;15.07;8.10;;;;;;;;;;6242445;28;20024;-68
2022/03/22 14:35:46;;;;;;;14.67;8.37;;;;;;;;;;6243817;28;20111;-68
2022/03/22 14:38:47;;;;;;;14.45;8.77;;;;;;;;;;6244138;28;20113;-68
2022/03/22 14:41:47;;;;;;;16.48;9.65;;;;;;;;;;6240047;28;20028;-68
2022/03/22 14:44:48;;;;;;;18.93;9.90;;;;;;;;;;6219223;28;20034;-68
2022/03/22 14:47:49;;;;;;;14.40;8.10;;;;;;;;;;6239572;28;20216;-68
2022/03/22 14:50:49;;;;;;;16.75;9.15;;;;;;;;;;6220859;28;20018;-68
2022/03/22 14:54:04;;;;;;;15.23;8.33;;;;;;;;;;6227071;28;20601;-68
2022/03/22 15:00:23;;;;;;;15.57;9.23;;;;;;;;;;6238199;28;20072;-68
2022/03/22 15:03:26;;;;;;;17.23;10.57;;;;;;;;;;6220798;28;20036;-67
2022/03/22 15:06:27;;;;;;;17.63;9.18;;;;;;;;;;6218919;28;20077;-67
2022/03/22 15:09:28;;;;;;;16.00;8.57;;;;;;;;;;6224939;28;20025;-67
2022/03/22 15:12:28;;;;;;;15.00;9.23;;;;;;;;;;6224683;28;20553;-67
2022/03/22 15:15:28;;;;;;;19.23;9.13;;;;;;;;;;6222150;28;20450;-67
2022/03/22 15:18:29;;;;;;;14.70;8.73;;;;;;;;;;6241560;28;20056;-67
2022/03/22 15:21:31;;;;;;;19.80;9.93;;;;;;;;;;6235234;28;20046;-67
2022/03/22 15:24:31;;;;;;;18.55;10.25;;;;;;;;;;6232900;28;20647;-67
2022/03/22 15:27:32;;;;;;;15.23;9.03;;;;;;;;;;6244180;28;20030;-67
2022/03/22 15:30:32;;;;;;;17.80;9.97;;;;;;;;;;6240209;28;20267;-67
2022/03/22 15:33:33;;;;;;;17.07;9.47;;;;;;;;;;6242685;28;20508;-67
2022/03/22 15:36:33;;;;;;;20.23;9.93;;;;;;;;;;6234895;28;20096;-67
2022/03/22 15:39:33;;;;;;;20.47;11.17;;;;;;;;;;6237372;28;20388;-67
2022/03/22 15:42:34;;;;;;;22.30;11.13;;;;;;;;;;6238700;28;20063;-67
2022/03/22 15:45:35;;;;;;;18.00;11.63;;;;;;;;;;6239728;28;20060;-67
2022/03/22 15:48:37;;;;;;;24.67;16.42;;;;;;;;;;6240242;28;20142;-67
2022/03/22 15:51:37;;;;;;;20.27;10.80;;;;;;;;;;6232750;28;20033;-67
2022/03/22 15:54:38;;;;;;;17.63;10.57;;;;;;;;;;6224574;28;20513;-67
2022/03/22 15:57:39;;;;;;;;;;;;;;;;;;6243698;28;20048;-67
2022/03/22 16:00:39;;;;;;;23.77;11.93;;;;;;;;;;6243664;28;19913;-67
2022/03/22 16:03:39;;;;;;;19.03;11.07;;;;;;;;;;6243658;28;20033;-67
2022/03/22 16:06:39;;;;;;;17.00;9.40;;;;;;;;;;6244016;28;20029;-67
2022/03/22 16:09:40;;;;;;;16.30;10.30;;;;;;;;;;6240946;28;20025;-67
2022/03/22 16:12:40;;;;;;;22.10;12.27;;;;;;;;;;6228238;28;20602;-67
2022/03/22 16:15:44;;;;;;;19.77;11.80;;;;;;;;;;6243903;28;20029;-67
2022/03/22 16:18:44;;;;;;;17.85;11.25;;;;;;;;;;6243055;28;20025;-67
2022/03/22 16:21:45;;;;;;;61.10;30.20;;;;;;;;;;6242861;28;20063;-67
2022/03/22 16:24:46;;;;;;;22.60;14.10;;;;;;;;;;6240574;28;20085;-67
2022/03/22 16:27:48;;;;;;;15.13;10.20;;;;;;;;;;6242865;28;20045;-67
2022/03/22 16:30:48;;;;;;;18.80;10.50;;;;;;;;;;6241987;28;20017;-67
2022/03/22 16:37:08;;;;;;;25.70;12.93;;;;;;;;;;6237957;28;20033;-67
2022/03/22 16:40:09;;;;;;;28.50;15.03;;;;;;;;;;6229098;28;20036;-67
2022/03/22 16:43:10;;;;;;;23.87;14.20;;;;;;;;;;6224250;28;20045;-67
2022/03/22 16:46:11;;;;;;;26.73;14.77;;;;;;;;;;6232475;28;20030;-67
2022/03/22 16:49:11;;;;;;;24.90;15.57;;;;;;;;;;6236929;28;20097;-67
2022/03/22 16:52:12;;;;;;;33.33;15.80;;;;;;;;;;6237720;28;20720;-67
2022/03/22 16:55:12;;;;;;;32.40;17.10;;;;;;;;;;6238228;28;20025;-67
2022/03/22 16:58:13;;;;;;;28.87;16.13;;;;;;;;;;6240651;28;20385;-67
2022/03/22 17:01:14;;;;;;;27.30;15.10;;;;;;;;;;6239966;28;20009;-67
2022/03/22 17:04:15;;;;;;;31.17;15.63;;;;;;;;;;6235755;28;20370;-67
2022/03/22 17:07:15;;;;;;;29.70;16.40;;;;;;;;;;6207889;28;20273;-67
2022/03/22 17:10:15;;;;;;;35.63;19.30;;;;;;;;;;6233114;28;20389;-67
2022/03/22 17:13:18;;;;;;;33.30;18.08;;;;;;;;;;6235406;28;20022;-67
2022/03/22 17:16:20;;;;;;;46.70;22.42;;;;;;;;;;6240928;28;20071;-67
2022/03/22 17:19:20;;;;;;;49.25;23.17;;;;;;;;;;6241495;28;20482;-67
2022/03/22 17:22:23;;;;;;;42.58;22.35;;;;;;;;;;6239895;28;20041;-67
2022/03/22 17:25:23;;;;;;;38.17;19.65;;;;;;;;;;6241493;28;20009;-67
2022/03/22 17:28:24;;;;;;;41.95;21.58;;;;;;;;;;6222973;28;20029;-67
2022/03/22 17:31:25;;;;;;;58.05;23.40;;;;;;;;;;6240520;28;20022;-67
2022/03/22 17:34:25;;;;;;;53.22;23.33;;;;;;;;;;6228908;28;20033;-67
2022/03/22 17:37:25;;;;;;;54.70;22.40;;;;;;;;;;6245547;28;20037;-67
2022/03/22 17:40:26;;;;;;;40.13;19.92;;;;;;;;;;6246294;28;20272;-67
2022/03/22 17:43:27;;;;;;;50.15;22.23;;;;;;;;;;6243097;28;20063;-67
2022/03/22 17:46:28;;;;;;;45.20;22.83;;;;;;;;;;6231955;28;20377;-67
2022/03/22 17:49:29;;;;;;;61.58;30.30;;;;;;;;;;6243740;28;20022;-66
2022/03/22 17:52:29;;;;;;;70.93;34.28;;;;;;;;;;6245067;28;20784;-66
2022/03/22 17:55:30;;;;;;;45.95;23.40;;;;;;;;;;6245494;28;20037;-66
2022/03/22 17:58:31;;;;;;;48.80;24.27;;;;;;;;;;6250763;28;20048;-66
2022/03/22 18:01:34;;;;;;;70.15;31.20;;;;;;;;;;6246302;28;20059;-66
2022/03/22 18:04:34;;;;;;;62.47;27.48;;;;;;;;;;6245044;28;20017;-66
2022/03/22 18:07:34;;;;;;;65.88;30.13;;;;;;;;;;6246504;28;20030;-67
2022/03/22 18:10:35;;;;;;;65.95;31.30;;;;;;;;;;6238917;28;20358;-66
2022/03/22 18:13:35;;;;;;;67.25;31.85;;;;;;;;;;6238695;28;20022;-66
2022/03/22 18:16:36;;;;;;;67.35;29.75;;;;;;;;;;6235438;28;20075;-66
2022/03/22 18:19:39;;;;;;;74.90;34.30;;;;;;;;;;6241757;28;20040;-66
2022/03/22 18:22:40;;;;;;;73.72;35.08;;;;;;;;;;6227877;28;20123;-66
2022/03/22 18:25:40;;;;;;;70.43;34.08;;;;;;;;;;6235434;28;20093;-66
2022/03/22 18:28:42;;;;;;;65.90;30.65;;;;;;;;;;6240785;28;20452;-66
2022/03/22 18:31:43;;;;;;;68.55;30.75;;;;;;;;;;6239534;28;20021;-66
2022/03/22 18:34:43;;;;;;;59.88;29.63;;;;;;;;;;6242918;28;20454;-66